createdAt,value
2018-03-28T00:00:11.782Z,12.63
2018-03-28T00:02:45.220Z,12.93
2018-03-28T00:05:18.639Z,12.50
2018-03-28T00:07:52.362Z,12.87
2018-03-28T00:10:25.711Z,12.53
2018-03-28T00:12:59.275Z,12.50
2018-03-28T00:15:32.702Z,12.30
2018-03-28T00:18:06.519Z,11.33
2018-03-28T00:20:40.163Z,11.47
2018-03-28T00:23:14.045Z,12.70
2018-03-28T00:25:47.483Z,11.27
2018-03-28T00:28:21.445Z,11.50
2018-03-28T00:30:55.193Z,12.03
2018-03-28T00:33:28.555Z,12.43
2018-03-28T00:36:02.331Z,12.03
2018-03-28T00:38:35.912Z,12.07
2018-03-28T00:41:09.291Z,12.03
2018-03-28T00:43:44.016Z,11.47
2018-03-28T00:46:17.843Z,11.30
2018-03-28T00:48:51.212Z,12.30
2018-03-28T00:51:33.614Z,11.30
2018-03-28T00:54:07.567Z,11.70
2018-03-28T00:56:42.621Z,11.27
2018-03-28T00:59:15.874Z,11.50
2018-03-28T01:01:49.163Z,11.17
2018-03-28T01:04:23.704Z,11.27
2018-03-28T01:06:58.790Z,10.87
2018-03-28T01:09:32.561Z,11.33
2018-03-28T01:12:06.471Z,13.00
2018-03-28T01:14:39.854Z,11.63
2018-03-28T01:17:13.185Z,11.20
2018-03-28T01:19:46.972Z,11.17
2018-03-28T01:22:20.343Z,11.20
2018-03-28T01:24:53.768Z,11.60
2018-03-28T01:27:27.670Z,11.07
2018-03-28T01:30:02.150Z,10.33
2018-03-28T01:32:35.794Z,10.90
2018-03-28T01:35:09.403Z,10.57
2018-03-28T01:37:43.071Z,10.90
2018-03-28T01:40:16.407Z,10.67
2018-03-28T01:42:49.785Z,12.30
2018-03-28T01:45:23.599Z,11.50
2018-03-28T01:47:57.334Z,11.83
2018-03-28T01:50:30.896Z,11.33
2018-03-28T01:53:05.530Z,11.40
2018-03-28T01:55:38.998Z,11.30
2018-03-28T01:58:12.583Z,12.60
2018-03-28T02:00:46.834Z,12.50
2018-03-28T02:05:55.514Z,12.83
2018-03-28T02:08:29.212Z,13.50
2018-03-28T02:11:03.044Z,11.83
2018-03-28T02:13:36.779Z,14.03
2018-03-28T02:16:10.394Z,12.67
2018-03-28T02:18:43.669Z,13.30
2018-03-28T02:21:17.587Z,14.17
2018-03-28T02:23:50.826Z,14.10
2018-03-28T02:26:24.180Z,14.80
2018-03-28T02:28:57.759Z,14.47
2018-03-28T02:31:31.311Z,15.00
2018-03-28T02:34:04.605Z,14.80
2018-03-28T02:36:38.024Z,14.03
2018-03-28T02:39:11.896Z,15.33
2018-03-28T02:41:45.496Z,15.00
2018-03-28T02:44:19.458Z,16.00
2018-03-28T02:46:53.364Z,13.87
2018-03-28T02:49:26.985Z,14.30
2018-03-28T02:52:00.877Z,14.00
2018-03-28T02:54:35.564Z,14.37
2018-03-28T02:57:09.079Z,14.43
2018-03-28T02:59:42.875Z,14.73
2018-03-28T03:02:16.592Z,14.97
2018-03-28T03:04:53.209Z,16.70
2018-03-28T03:07:30.125Z,15.53
2018-03-28T03:10:04.911Z,15.67
2018-03-28T03:12:39.001Z,16.33
2018-03-28T03:15:12.941Z,16.60
2018-03-28T03:17:46.728Z,16.73
2018-03-28T03:20:21.007Z,17.00
2018-03-28T03:22:55.529Z,17.83
2018-03-28T03:25:28.778Z,16.70
2018-03-28T03:28:02.647Z,18.33
2018-03-28T03:30:36.174Z,18.77
2018-03-28T03:33:09.634Z,17.37
2018-03-28T03:35:43.043Z,17.57
2018-03-28T03:38:16.738Z,17.77
2018-03-28T03:40:50.046Z,18.83
2018-03-28T03:43:24.103Z,17.53
2018-03-28T03:45:57.857Z,17.70
2018-03-28T03:48:31.335Z,17.60
2018-03-28T03:51:05.397Z,18.30
2018-03-28T03:53:38.958Z,19.63
2018-03-28T03:56:12.955Z,18.53
2018-03-28T03:58:46.476Z,20.43
2018-03-28T04:01:20.154Z,20.83
2018-03-28T04:03:53.689Z,19.53
2018-03-28T04:06:27.302Z,19.60
2018-03-28T04:09:00.803Z,20.90
2018-03-28T04:11:34.481Z,19.13
2018-03-28T04:14:08.631Z,21.37
2018-03-28T04:16:42.438Z,20.07
2018-03-28T04:19:15.990Z,20.23
2018-03-28T04:21:49.634Z,20.10
2018-03-28T04:24:24.064Z,18.63
2018-03-28T04:26:57.614Z,19.43
2018-03-28T04:29:31.832Z,22.80
2018-03-28T04:32:05.931Z,21.93
2018-03-28T04:34:39.408Z,20.83
2018-03-28T04:37:12.801Z,20.07
2018-03-28T04:39:46.787Z,19.47
2018-03-28T04:42:20.265Z,20.27
2018-03-28T04:44:54.441Z,20.50
2018-03-28T04:47:29.027Z,20.33
2018-03-28T04:50:03.119Z,22.27
2018-03-28T04:52:40.097Z,21.60
2018-03-28T04:55:14.376Z,20.60
2018-03-28T04:57:48.845Z,20.77
2018-03-28T05:00:23.088Z,21.07
2018-03-28T05:02:56.451Z,21.37
2018-03-28T05:05:40.850Z,21.77
2018-03-28T05:08:24.855Z,20.80
2018-03-28T05:11:03.550Z,21.17
2018-03-28T05:13:37.646Z,22.27
2018-03-28T05:16:13.278Z,22.83
2018-03-28T05:18:48.382Z,24.13
2018-03-28T05:21:23.020Z,24.40
2018-03-28T05:23:56.724Z,23.67
2018-03-28T05:26:31.307Z,24.67
2018-03-28T05:29:05.110Z,22.77
2018-03-28T05:31:39.022Z,24.33
2018-03-28T05:34:12.727Z,24.57
2018-03-28T05:36:46.218Z,26.23
2018-03-28T05:39:20.110Z,22.97
2018-03-28T05:41:54.071Z,24.73
2018-03-28T05:44:27.834Z,25.40
2018-03-28T05:47:02.754Z,23.57
2018-03-28T05:49:38.027Z,24.10
2018-03-28T05:52:11.817Z,25.93
2018-03-28T05:54:45.900Z,23.43
2018-03-28T05:57:24.767Z,24.63
2018-03-28T05:59:59.750Z,22.73
2018-03-28T06:02:34.826Z,25.33
2018-03-28T06:05:08.898Z,24.97
2018-03-28T06:07:42.631Z,24.67
2018-03-28T06:10:18.580Z,23.63
2018-03-28T06:12:52.106Z,24.40
2018-03-28T06:15:25.403Z,24.33
2018-03-28T06:18:00.825Z,25.77
2018-03-28T06:20:35.446Z,24.40
2018-03-28T06:23:09.323Z,24.33
2018-03-28T06:25:43.714Z,25.07
2018-03-28T06:28:17.924Z,24.73
2018-03-28T06:30:51.537Z,24.93
2018-03-28T06:33:25.711Z,24.50
2018-03-28T06:35:59.554Z,25.60
2018-03-28T06:38:33.823Z,25.37
2018-03-28T06:41:08.838Z,24.87
2018-03-28T06:43:43.464Z,24.13
2018-03-28T06:46:17.211Z,24.00
2018-03-28T06:48:51.351Z,24.73
2018-03-28T06:51:26.159Z,25.40
2018-03-28T06:54:00.298Z,24.97
2018-03-28T06:56:33.811Z,25.27
2018-03-28T06:59:07.565Z,24.30
2018-03-28T07:04:02.825Z,24.77
2018-03-28T07:06:36.594Z,24.50
2018-03-28T07:09:10.083Z,24.37
2018-03-28T07:11:44.166Z,24.60
2018-03-28T07:14:17.628Z,22.93
2018-03-28T07:16:51.454Z,23.13
2018-03-28T07:19:27.275Z,24.90
2018-03-28T07:22:01.803Z,22.73
2018-03-28T07:24:35.376Z,24.13
2018-03-28T07:27:10.950Z,24.50
2018-03-28T07:29:52.011Z,23.13
2018-03-28T07:32:25.882Z,24.57
2018-03-28T07:34:59.939Z,24.27
2018-03-28T07:37:34.915Z,23.87
2018-03-28T07:40:11.628Z,24.70
2018-03-28T07:42:46.295Z,23.37
2018-03-28T07:45:23.737Z,22.73
2018-03-28T07:47:58.185Z,23.03
2018-03-28T07:50:32.468Z,23.20
2018-03-28T07:53:06.080Z,22.40
2018-03-28T07:55:39.699Z,22.03
2018-03-28T07:58:14.167Z,21.83
2018-03-28T08:00:47.823Z,23.73
2018-03-28T08:03:21.383Z,22.20
2018-03-28T08:05:56.487Z,22.80
2018-03-28T08:08:31.163Z,21.47
2018-03-28T08:11:06.948Z,20.90
2018-03-28T08:13:41.371Z,20.83
2018-03-28T08:16:17.636Z,21.20
2018-03-28T08:18:52.075Z,21.03
2018-03-28T08:21:25.940Z,20.53
2018-03-28T08:23:59.482Z,19.23
2018-03-28T08:26:34.471Z,21.07
2018-03-28T08:29:08.204Z,18.70
2018-03-28T08:31:41.972Z,19.10
2018-03-28T08:34:16.258Z,19.87
2018-03-28T08:36:50.063Z,20.30
2018-03-28T08:39:23.525Z,19.10
2018-03-28T08:41:57.624Z,17.87
2018-03-28T08:44:31.600Z,17.87
2018-03-28T08:47:05.681Z,18.20
2018-03-28T08:49:39.807Z,17.97
2018-03-28T08:52:14.805Z,16.53
2018-03-28T08:54:49.837Z,16.73
2018-03-28T08:57:23.879Z,17.53
2018-03-28T08:59:57.616Z,17.03
2018-03-28T09:02:31.571Z,15.73
2018-03-28T09:05:07.845Z,14.57
2018-03-28T09:07:41.818Z,14.43
2018-03-28T09:10:15.481Z,14.37
2018-03-28T09:12:49.140Z,14.17
2018-03-28T09:15:24.057Z,13.40
2018-03-28T09:17:58.708Z,13.83
2018-03-28T09:20:32.746Z,13.03
2018-03-28T09:23:06.568Z,11.87
2018-03-28T09:25:41.949Z,12.00
2018-03-28T09:28:15.741Z,9.70
2018-03-28T09:30:50.427Z,10.27
2018-03-28T09:33:24.390Z,9.00
2018-03-28T09:35:57.774Z,7.87
2018-03-28T09:38:31.795Z,7.63
2018-03-28T09:41:06.423Z,7.40
2018-03-28T09:43:40.147Z,6.87
2018-03-28T09:46:15.302Z,6.83
2018-03-28T09:48:48.793Z,6.43
2018-03-28T09:51:23.944Z,6.20
2018-03-28T09:53:57.601Z,5.67
2018-03-28T09:56:31.818Z,5.57
2018-03-28T09:59:06.669Z,5.30
2018-03-28T10:01:45.092Z,5.83
2018-03-28T10:04:18.811Z,4.80
2018-03-28T10:06:53.038Z,5.03
2018-03-28T10:09:28.232Z,5.00
2018-03-28T10:12:02.140Z,4.67
2018-03-28T10:14:36.810Z,4.87
2018-03-28T10:17:11.534Z,4.33
2018-03-28T10:19:45.819Z,4.30
2018-03-28T10:22:19.382Z,4.70
2018-03-28T10:24:53.488Z,3.80
2018-03-28T10:27:27.324Z,4.03
2018-03-28T10:30:01.006Z,3.70
2018-03-28T10:32:34.949Z,3.83
2018-03-28T10:35:12.472Z,3.50
2018-03-28T10:37:46.777Z,3.00
2018-03-28T10:40:21.284Z,3.53
2018-03-28T10:42:54.954Z,3.13
2018-03-28T10:45:30.539Z,2.90
2018-03-28T10:48:04.351Z,2.30
2018-03-28T10:50:38.261Z,2.50
2018-03-28T10:53:12.756Z,2.07
2018-03-28T10:55:46.451Z,2.07
2018-03-28T10:58:20.141Z,2.10
2018-03-28T11:00:54.981Z,1.93
2018-03-28T11:03:28.459Z,2.50
2018-03-28T11:06:02.868Z,2.33
2018-03-28T11:08:38.276Z,2.03
2018-03-28T11:11:14.078Z,2.10
2018-03-28T11:13:48.358Z,3.33
2018-03-28T11:16:22.560Z,2.13
2018-03-28T11:18:57.137Z,3.00
2018-03-28T11:21:30.684Z,3.40
2018-03-28T11:24:04.589Z,4.63
2018-03-28T11:26:39.069Z,3.00
2018-03-28T11:29:13.301Z,4.30
2018-03-28T11:31:50.023Z,3.60
2018-03-28T11:34:24.478Z,3.23
2018-03-28T11:36:58.996Z,2.17
2018-03-28T11:39:32.748Z,2.40
2018-03-28T11:42:06.396Z,1.63
2018-03-28T11:44:40.630Z,1.70
2018-03-28T11:47:14.007Z,1.57
2018-03-28T11:49:47.702Z,2.23
2018-03-28T11:52:22.800Z,1.60
2018-03-28T11:54:56.568Z,1.33
2018-03-28T11:57:30.556Z,1.50
2018-03-28T12:00:05.439Z,1.13
2018-03-28T12:02:40.468Z,1.20
2018-03-28T12:05:14.059Z,1.40
2018-03-28T12:11:28.084Z,1.40
2018-03-28T12:14:28.698Z,1.10
2018-03-28T12:17:06.081Z,1.20
2018-03-28T12:20:08.821Z,0.97
2018-03-28T12:22:51.742Z,0.87
2018-03-28T12:28:19.537Z,1.40
2018-03-28T12:37:27.758Z,1.57
2018-03-28T12:54:38.336Z,1.00
2018-03-28T13:00:15.325Z,1.63
2018-03-28T13:08:01.390Z,1.00
2018-03-28T13:15:42.432Z,2.13
2018-03-28T13:27:33.182Z,1.47
2018-03-28T13:36:34.234Z,1.50
2018-03-28T13:42:25.825Z,2.50
2018-03-28T13:48:03.403Z,2.20
2018-03-28T13:51:03.005Z,2.53
2018-03-28T13:53:59.442Z,2.30
2018-03-28T13:57:13.680Z,2.50
2018-03-28T14:02:53.000Z,6.97
2018-03-28T14:12:02.321Z,13.47
2018-03-28T14:14:37.929Z,35.70
2018-03-28T14:17:14.098Z,13.73
2018-03-28T14:19:49.027Z,7.23
2018-03-28T14:22:23.877Z,5.10
2018-03-28T14:24:58.867Z,4.93
2018-03-28T14:27:42.945Z,3.73
2018-03-28T14:30:18.657Z,3.63
2018-03-28T14:32:53.947Z,3.80
2018-03-28T14:35:45.924Z,4.30
2018-03-28T14:38:23.011Z,3.20
2018-03-28T14:41:02.038Z,2.70
2018-03-28T14:43:40.030Z,2.97
2018-03-28T14:46:17.468Z,2.30
2018-03-28T14:48:56.675Z,1.87
2018-03-28T14:51:33.215Z,1.50
2018-03-28T14:54:07.229Z,1.60
2018-03-28T14:56:45.865Z,1.53
2018-03-28T14:59:22.786Z,1.47
2018-03-28T15:01:57.882Z,1.50
2018-03-28T15:04:32.655Z,1.30
2018-03-28T15:07:07.667Z,1.10
2018-03-28T15:09:48.847Z,1.10
2018-03-28T15:12:26.501Z,1.00
2018-03-28T15:15:05.928Z,1.10
2018-03-28T15:17:41.244Z,1.03
2018-03-28T15:20:16.920Z,1.00
2018-03-28T15:22:50.955Z,0.93
2018-03-28T15:25:33.895Z,0.80
2018-03-28T15:28:09.419Z,1.30
2018-03-28T15:30:44.600Z,1.13
2018-03-28T15:33:19.015Z,1.87
2018-03-28T15:35:55.737Z,1.10
2018-03-28T15:38:30.970Z,1.80
2018-03-28T15:41:08.122Z,1.13
2018-03-28T15:43:50.750Z,1.83
2018-03-28T15:49:48.924Z,1.87
2018-03-28T15:52:41.800Z,2.33
2018-03-28T15:55:18.090Z,2.70
2018-03-28T15:57:51.880Z,2.97
2018-03-28T16:00:27.457Z,2.67
2018-03-28T16:03:03.357Z,2.27
2018-03-28T16:05:37.381Z,2.70
2018-03-28T16:08:12.673Z,3.03
2018-03-28T16:10:47.087Z,3.43
2018-03-28T16:13:48.309Z,2.80
2018-03-28T16:16:35.253Z,3.17
2018-03-28T16:19:10.315Z,3.67
2018-03-28T16:21:46.045Z,3.33
2018-03-28T16:24:23.723Z,2.90
2018-03-28T16:26:57.636Z,3.17
2018-03-28T16:29:32.161Z,3.50
2018-03-28T16:32:06.302Z,3.07
2018-03-28T16:34:39.461Z,3.40
2018-03-28T16:37:16.207Z,3.63
2018-03-28T16:39:50.284Z,3.37
2018-03-28T16:45:15.957Z,3.60
2018-03-28T16:47:50.229Z,3.80
2018-03-28T16:53:12.078Z,4.00
2018-03-28T16:55:46.047Z,4.20
2018-03-28T16:58:24.274Z,4.83
2018-03-28T17:01:06.542Z,5.10
2018-03-28T17:03:43.906Z,5.33
2018-03-28T17:09:12.756Z,6.23
2018-03-28T17:11:55.590Z,7.10
2018-03-28T17:17:38.288Z,5.70
2018-03-28T17:20:12.961Z,5.80
2018-03-28T17:23:02.902Z,5.10
2018-03-28T17:25:37.800Z,5.33
2018-03-28T17:28:16.164Z,5.37
2018-03-28T17:30:50.898Z,6.70
2018-03-28T17:33:47.850Z,5.17
2018-03-28T17:38:03.666Z,4.77
2018-03-28T17:47:04.406Z,5.43
2018-03-28T17:52:43.125Z,5.83
2018-03-28T17:58:08.711Z,6.23
2018-03-28T18:00:47.941Z,10.93
2018-03-28T18:03:22.434Z,16.40
2018-03-28T18:05:59.788Z,13.37
2018-03-28T18:09:17.252Z,14.00
2018-03-28T18:11:52.094Z,12.23
2018-03-28T18:14:30.009Z,12.90
2018-03-28T18:17:07.097Z,12.67
2018-03-28T18:19:43.262Z,13.37
2018-03-28T18:22:19.004Z,15.33
2018-03-28T18:25:07.588Z,19.57
2018-03-28T18:27:42.936Z,20.30
2018-03-28T18:30:33.776Z,18.93
2018-03-28T18:33:14.502Z,19.30
2018-03-28T18:35:49.695Z,19.40
2018-03-28T18:38:26.557Z,20.20
2018-03-28T18:41:09.464Z,18.13
2018-03-28T18:43:44.057Z,16.77
2018-03-28T18:46:25.422Z,15.83
2018-03-28T18:49:08.941Z,14.30
2018-03-28T18:51:43.809Z,12.53
2018-03-28T18:54:20.082Z,10.57
2018-03-28T18:59:55.760Z,10.53
2018-03-28T19:02:35.647Z,10.87
2018-03-28T19:05:53.923Z,11.13
2018-03-28T19:08:44.807Z,10.00
2018-03-28T19:11:29.806Z,10.67
2018-03-28T19:14:05.333Z,9.90
2018-03-28T19:16:43.019Z,10.53
2018-03-28T19:19:17.515Z,10.40
2018-03-28T19:21:56.310Z,13.23
2018-03-28T19:24:38.195Z,11.37
2018-03-28T19:27:15.742Z,11.63
2018-03-28T19:29:54.928Z,11.40
2018-03-28T19:32:38.650Z,11.27
2018-03-28T19:38:37.941Z,12.20
2018-03-28T19:44:28.470Z,10.77
2018-03-28T19:47:08.242Z,10.80
2018-03-28T19:49:57.099Z,10.83
2018-03-28T19:52:30.968Z,11.20
2018-03-28T19:55:06.324Z,10.90
2018-03-28T19:57:40.189Z,11.00
2018-03-28T20:00:14.698Z,11.13
2018-03-28T20:02:48.480Z,12.67
2018-03-28T20:05:22.290Z,12.40
2018-03-28T20:08:02.684Z,12.53
2018-03-28T20:10:41.723Z,16.37
2018-03-28T20:13:15.278Z,15.53
2018-03-28T20:15:49.218Z,15.13
2018-03-28T20:18:23.066Z,15.37
2018-03-28T20:20:56.860Z,15.50
2018-03-28T20:23:31.274Z,14.73
2018-03-28T20:26:04.696Z,15.27
2018-03-28T20:28:38.929Z,13.50
2018-03-28T20:31:12.269Z,12.50
2018-03-28T20:33:46.363Z,12.63
2018-03-28T20:36:20.623Z,11.10
2018-03-28T20:38:54.091Z,11.00
2018-03-28T20:41:27.549Z,10.90
2018-03-28T20:44:07.504Z,9.87
2018-03-28T20:46:41.456Z,12.03
2018-03-28T20:49:14.917Z,10.80
2018-03-28T20:51:49.673Z,9.53
2018-03-28T20:54:23.891Z,9.43
2018-03-28T20:56:58.837Z,9.60
2018-03-28T20:59:32.911Z,8.93
2018-03-28T21:02:06.661Z,9.00
2018-03-28T21:04:41.845Z,9.67
2018-03-28T21:07:16.480Z,9.80
2018-03-28T21:09:50.228Z,9.67
2018-03-28T21:12:27.882Z,9.80
2018-03-28T21:15:02.479Z,9.30
2018-03-28T21:17:39.951Z,9.47
2018-03-28T21:20:13.371Z,9.50
2018-03-28T21:22:50.950Z,9.73
2018-03-28T21:25:25.931Z,8.83
2018-03-28T21:27:59.549Z,9.07
2018-03-28T21:30:33.225Z,9.17
2018-03-28T21:33:07.162Z,9.20
2018-03-28T21:35:40.644Z,9.00
2018-03-28T21:38:14.227Z,9.63
2018-03-28T21:40:47.914Z,8.73
2018-03-28T21:43:21.317Z,8.70
2018-03-28T21:45:54.694Z,8.97
2018-03-28T21:48:28.264Z,8.40
2018-03-28T21:51:01.711Z,8.43
2018-03-28T21:53:35.128Z,7.47
2018-03-28T21:56:08.678Z,7.87
2018-03-28T21:58:41.958Z,8.17
2018-03-28T22:01:15.354Z,7.87
2018-03-28T22:03:49.147Z,7.80
2018-03-28T22:06:22.430Z,7.33
2018-03-28T22:08:56.137Z,7.40
2018-03-28T22:11:29.569Z,8.27
2018-03-28T22:14:02.977Z,8.60
2018-03-28T22:16:36.534Z,7.67
2018-03-28T22:19:10.139Z,7.10
2018-03-28T22:21:43.556Z,7.23
2018-03-28T22:24:17.241Z,7.07
2018-03-28T22:26:50.844Z,7.17
2018-03-28T22:29:24.246Z,7.57
2018-03-28T22:31:57.695Z,7.17
2018-03-28T22:34:31.089Z,7.87
2018-03-28T22:37:04.522Z,7.63
2018-03-28T22:39:38.321Z,7.20
2018-03-28T22:42:12.803Z,6.90
2018-03-28T22:44:46.218Z,6.70
2018-03-28T22:47:19.674Z,6.80
2018-03-28T22:49:52.987Z,6.23
2018-03-28T22:52:26.648Z,6.03
2018-03-28T22:55:00.240Z,6.23
2018-03-28T22:57:33.807Z,5.63
2018-03-28T23:00:07.608Z,6.10
2018-03-28T23:02:41.929Z,6.63
2018-03-28T23:05:15.195Z,5.70
2018-03-28T23:07:48.949Z,6.30
2018-03-28T23:10:23.578Z,5.63
2018-03-28T23:12:57.180Z,5.60
2018-03-28T23:15:30.688Z,4.87
2018-03-28T23:18:05.111Z,5.50
2018-03-28T23:20:38.508Z,4.90
2018-03-28T23:23:11.824Z,5.03
2018-03-28T23:25:45.477Z,5.10
2018-03-28T23:28:19.009Z,5.50
2018-03-28T23:30:52.352Z,5.00
2018-03-28T23:33:26.124Z,4.90
2018-03-28T23:35:59.545Z,4.80
2018-03-28T23:38:33.303Z,5.47
2018-03-28T23:41:07.071Z,5.23
2018-03-28T23:43:40.405Z,4.77
2018-03-28T23:46:13.710Z,4.47
2018-03-28T23:48:47.398Z,5.37
2018-03-28T23:51:20.725Z,6.17
2018-03-28T23:53:54.111Z,5.13
2018-03-28T23:56:28.133Z,5.23
2018-03-28T23:59:01.425Z,3.90
